Buj, Russia
Current Conditions -  °F | °C
As of 12:30 AM on Thursday 18 Dec 2014 (Local Time) from UUDL Reporting Station
Clear Clear  
Wind Chill: 27°   Ceiling: Unl
Heat Index: 34°   Visibility: 6mi
Dew Point: 32°   Wind: 9mph
Humidity: 93%   Direction: 160°SSE
Pressure: 29.56"   Gusts: NA
Location:  58.48°N, 41.53°E
Report Text: UUDL 172130Z 16004MPS 9000 SKC 01/00 Q1001 NOSIG RMK QFE742
Loading
Personal Weather Stations






























Interactive Weather Map New forecast layout! Learn more

10-Day Weather Forecast

Advertisements
Track Severe Weather on mobile